»·PEaware :: N921VN KGJT-KGJT

N921VN :: KGJT-KGJT

FLIGHT INFORMATION

Flight Status: Arrived
Operator: Privately registered:
United States
More flights under this callsign
Pilot: Kevin M. (7)
Aircraft: BEECH AIRCRAFT BARON
(BE58)
More flights by this aircraft type
Origin: KGJT Grand Junction Regl
United States
Destination: KGJT Grand Junction Regl
United States
More flights between these airports :: More routes between these airports
Route: +JNC7 JNC
File this flight plan on PilotEdge
Remarks: IFR practice
Altitude:
(Current/Filed)
9,000ft
Speed:
(Current/Filed)
150kts
Departed: 08-Jan-20 11:50 AM
Arrived: 08-Jan-20 12:56 PM
Distance/Time
Traveled:
0nm/1:05
Distance/Time
To Go:
Arrived

Flight Plot

Page will automatically refresh every two minutes.

Flight plan parsing failed; only flown route is shown


Map Options




Map Legend


Flown Route
Filed Route
Departure Airport
Arrival Airport
Navaid (VOR, NDB)
Fix

Horizontal Profiles

Position Reports

Time Latitude Longitude Heading Altitude Ground
Speed
08-Jan-20 11:31 39.120416 -108.522419 303 4837ft 0kts
08-Jan-20 11:32 39.120416 -108.522419 303 4837ft 0kts
08-Jan-20 11:33 39.120416 -108.522419 303 4837ft 0kts
08-Jan-20 11:34 39.120416 -108.522419 303 4837ft 0kts
08-Jan-20 11:35 39.120416 -108.522419 303 4837ft 0kts
08-Jan-20 11:36 39.120416 -108.522419 303 4837ft 0kts
08-Jan-20 11:37 39.120416 -108.522419 303 4837ft 0kts
08-Jan-20 11:38 39.120416 -108.522419 303 4837ft 0kts
08-Jan-20 11:39 39.120416 -108.522419 303 4837ft 0kts
08-Jan-20 11:40 39.120416 -108.522419 303 4837ft 0kts
08-Jan-20 11:41 39.120416 -108.522419 303 4837ft 0kts
08-Jan-20 11:42 39.120416 -108.522419 303 4837ft 0kts
08-Jan-20 11:43 39.120416 -108.522419 303 4837ft 0kts
08-Jan-20 11:44 39.120416 -108.522419 303 4837ft 0kts
08-Jan-20 11:45 39.120983 -108.521305 122 4843ft 14kts
08-Jan-20 11:46 39.118261 -108.516338 127 4846ft 4kts
08-Jan-20 11:47 39.118243 -108.516309 127 4846ft 0kts
08-Jan-20 11:48 39.118240 -108.514967 32 4848ft 14kts
08-Jan-20 11:49 39.130478 -108.538091 300 5693ft 105kts
08-Jan-20 11:50 39.131841 -108.568455 244 7119ft 105kts
08-Jan-20 11:51 39.119161 -108.595602 242 8500ft 103kts
08-Jan-20 11:52 39.106499 -108.627814 245 9807ft 105kts
08-Jan-20 11:53 39.094003 -108.669237 248 10219ft 140kts
08-Jan-20 11:54 39.086543 -108.694743 250 9941ft 161kts
08-Jan-20 11:55 39.074523 -108.738615 248 10133ft 148kts
08-Jan-20 11:56 39.064186 -108.791815 266 10100ft 160kts
08-Jan-20 11:57 39.076531 -108.847356 268 9977ft 160kts
08-Jan-20 11:58 39.090906 -108.901907 284 10135ft 163kts
08-Jan-20 11:59 39.107086 -108.957970 284 10117ft 159kts
08-Jan-20 12:00 39.118764 -109.014133 295 9936ft 169kts
08-Jan-20 12:01 39.141517 -109.062630 354 9743ft 204kts
08-Jan-20 12:02 39.192614 -109.021289 25 9362ft 203kts
08-Jan-20 12:03 39.230297 -108.963841 47 9213ft 211kts
08-Jan-20 12:04 39.262924 -108.896351 77 8472ft 223kts
08-Jan-20 12:05 39.264197 -108.825769 122 9017ft 196kts
08-Jan-20 12:06 39.250905 -108.754861 118 8787ft 214kts
08-Jan-20 12:07 39.214509 -108.691308 124 7468ft 231kts
08-Jan-20 12:08 39.180638 -108.627637 125 6270ft 205kts
08-Jan-20 12:09 39.148594 -108.569174 125 5275ft 194kts
08-Jan-20 12:10 39.113895 -108.536865 197 5664ft 133kts
08-Jan-20 12:11 39.086710 -108.558198 223 7002ft 142kts
08-Jan-20 12:12 39.052461 -108.593592 223 7555ft 166kts
08-Jan-20 12:13 39.035685 -108.640459 282 8075ft 158kts
08-Jan-20 12:14 39.046481 -108.695358 281 8588ft 156kts
08-Jan-20 12:15 39.053931 -108.749840 276 9092ft 153kts
08-Jan-20 12:17 39.061786 -108.803363 283 9612ft 151kts
08-Jan-20 12:18 39.076790 -108.853571 283 10032ft 159kts
08-Jan-20 12:19 39.092895 -108.908623 284 10029ft 167kts
08-Jan-20 12:20 39.109225 -108.964977 284 10028ft 167kts
08-Jan-20 12:21 39.118282 -108.996393 283 10028ft 168kts
08-Jan-20 12:22 39.134524 -109.052906 283 10027ft 167kts
08-Jan-20 12:23 39.163174 -109.034359 106 9947ft 210kts
08-Jan-20 12:24 39.151140 -108.962058 136 10074ft 195kts
08-Jan-20 12:25 39.129956 -108.990422 268 10213ft 152kts
08-Jan-20 12:26 39.134649 -109.047973 286 10185ft 159kts
08-Jan-20 12:27 39.172166 -109.044562 79 9953ft 218kts
08-Jan-20 12:28 39.164110 -108.969651 105 9839ft 213kts
08-Jan-20 12:29 39.134614 -108.941742 244 10039ft 149kts
08-Jan-20 12:30 39.129339 -108.996513 265 9882ft 166kts
08-Jan-20 12:31 39.137738 -109.052408 320 9987ft 181kts
08-Jan-20 12:32 39.187360 -109.018870 44 9358ft 236kts
08-Jan-20 12:33 39.233891 -108.966742 47 8834ft 226kts
08-Jan-20 12:34 39.262856 -108.897805 55 8521ft 218kts
08-Jan-20 12:35 39.271098 -108.821533 105 8313ft 216kts
08-Jan-20 12:36 39.251032 -108.752138 124 8420ft 205kts
08-Jan-20 12:37 39.215885 -108.690229 132 7456ft 237kts
08-Jan-20 12:37 39.184794 -108.632986 128 6192ft 235kts
08-Jan-20 12:39 39.142695 -108.556783 125 5096ft 221kts
08-Jan-20 12:39 39.113720 -108.508903 129 5613ft 179kts
08-Jan-20 12:40 39.083824 -108.472790 194 7312ft 141kts
08-Jan-20 12:42 39.061853 -108.513205 247 8783ft 133kts
08-Jan-20 12:42 39.055284 -108.551172 268 9406ft 142kts
08-Jan-20 12:44 39.015311 -108.574236 184 10039ft 167kts
08-Jan-20 12:44 38.977555 -108.550340 159 10042ft 187kts
08-Jan-20 12:45 38.931671 -108.517675 159 10041ft 189kts
08-Jan-20 12:47 38.878071 -108.480344 149 10045ft 194kts
08-Jan-20 12:47 38.846064 -108.438973 116 10109ft 205kts
08-Jan-20 12:48 38.879096 -108.388413 13 10260ft 199kts
08-Jan-20 12:49 38.935495 -108.365069 351 9552ft 210kts
08-Jan-20 12:50 38.987087 -108.375326 299 8367ft 206kts
08-Jan-20 12:51 39.029416 -108.424469 317 6666ft 212kts
08-Jan-20 12:52 39.062906 -108.459698 323 5557ft 116kts
08-Jan-20 12:53 39.086478 -108.481482 334 5463ft 99kts
08-Jan-20 12:54 39.108318 -108.502106 327 5349ft 97kts
08-Jan-20 12:55 39.123926 -108.524362 278 4849ft 21kts
08-Jan-20 12:56 39.122605 -108.524666 151 4843ft 0kts
08-Jan-20 12:57 39.122527 -108.524613 152 4842ft 0kts

Navigation Log

Ident Type
Flight plan parsing failed, navigation log unavailable